sensor_id;sensor_type;location;lat;lon;timestamp;P1;durP1;ratioP1;P2;durP2;ratioP2
23402;SDS011;11874;48.228;11.684;2023-03-11T00:06:27;0.85;;;0.60;;
23402;SDS011;11874;48.228;11.684;2023-03-11T00:08:55;0.70;;;0.70;;
23402;SDS011;11874;48.228;11.684;2023-03-11T00:11:23;0.65;;;0.65;;
23402;SDS011;11874;48.228;11.684;2023-03-11T00:13:51;1.25;;;0.93;;
23402;SDS011;11874;48.228;11.684;2023-03-11T00:16:19;0.75;;;0.75;;
23402;SDS011;11874;48.228;11.684;2023-03-11T00:18:48;0.88;;;0.68;;
23402;SDS011;11874;48.228;11.684;2023-03-11T00:21:17;1.08;;;0.88;;
23402;SDS011;11874;48.228;11.684;2023-03-11T00:23:46;0.70;;;0.70;;
23402;SDS011;11874;48.228;11.684;2023-03-11T00:26:14;0.75;;;0.75;;
23402;SDS011;11874;48.228;11.684;2023-03-11T00:28:42;0.68;;;0.68;;
23402;SDS011;11874;48.228;11.684;2023-03-11T00:31:10;1.17;;;0.80;;
23402;SDS011;11874;48.228;11.684;2023-03-11T00:33:39;1.30;;;0.90;;
23402;SDS011;11874;48.228;11.684;2023-03-11T00:36:10;0.80;;;0.80;;
23402;SDS011;11874;48.228;11.684;2023-03-11T00:38:48;0.70;;;0.70;;
23402;SDS011;11874;48.228;11.684;2023-03-11T00:41:17;1.02;;;0.93;;
23402;SDS011;11874;48.228;11.684;2023-03-11T00:43:44;1.52;;;0.90;;
23402;SDS011;11874;48.228;11.684;2023-03-11T00:46:12;1.17;;;0.90;;
23402;SDS011;11874;48.228;11.684;2023-03-11T00:48:40;0.70;;;0.70;;
23402;SDS011;11874;48.228;11.684;2023-03-11T00:51:09;0.70;;;0.70;;
23402;SDS011;11874;48.228;11.684;2023-03-11T00:53:40;0.40;;;0.40;;
23402;SDS011;11874;48.228;11.684;2023-03-11T00:56:10;0.88;;;0.82;;
23402;SDS011;11874;48.228;11.684;2023-03-11T00:58:39;0.60;;;0.60;;
23402;SDS011;11874;48.228;11.684;2023-03-11T01:01:09;0.90;;;0.57;;
23402;SDS011;11874;48.228;11.684;2023-03-11T01:03:38;0.50;;;0.50;;
23402;SDS011;11874;48.228;11.684;2023-03-11T11:05:42;2.65;;;1.00;;
23402;SDS011;11874;48.228;11.684;2023-03-11T11:08:11;1.23;;;1.13;;
23402;SDS011;11874;48.228;11.684;2023-03-11T11:10:48;2.08;;;1.10;;
23402;SDS011;11874;48.228;11.684;2023-03-11T11:13:18;1.00;;;0.85;;
23402;SDS011;11874;48.228;11.684;2023-03-11T11:15:54;1.08;;;0.85;;
23402;SDS011;11874;48.228;11.684;2023-03-11T11:18:26;1.17;;;0.85;;
23402;SDS011;11874;48.228;11.684;2023-03-11T11:21:03;1.95;;;1.10;;
23402;SDS011;11874;48.228;11.684;2023-03-11T11:23:34;1.33;;;0.85;;
23402;SDS011;11874;48.228;11.684;2023-03-11T11:26:05;4.82;;;0.85;;
23402;SDS011;11874;48.228;11.684;2023-03-11T11:28:39;2.17;;;1.15;;
23402;SDS011;11874;48.228;11.684;2023-03-11T11:31:18;2.58;;;0.90;;
23402;SDS011;11874;48.228;11.684;2023-03-11T11:33:48;1.00;;;0.90;;
23402;SDS011;11874;48.228;11.684;2023-03-11T11:36:19;3.38;;;0.98;;
23402;SDS011;11874;48.228;11.684;2023-03-11T11:41:19;1.40;;;1.00;;
23402;SDS011;11874;48.228;11.684;2023-03-11T11:43:48;1.35;;;1.08;;
23402;SDS011;11874;48.228;11.684;2023-03-11T11:46:20;2.30;;;1.00;;
23402;SDS011;11874;48.228;11.684;2023-03-11T11:49:02;1.02;;;0.93;;
23402;SDS011;11874;48.228;11.684;2023-03-11T11:51:37;1.55;;;1.17;;
23402;SDS011;11874;48.228;11.684;2023-03-11T11:54:12;1.83;;;0.90;;
23402;SDS011;11874;48.228;11.684;2023-03-11T11:56:43;1.23;;;0.80;;
23402;SDS011;11874;48.228;11.684;2023-03-11T11:59:15;1.85;;;0.90;;
23402;SDS011;11874;48.228;11.684;2023-03-11T12:01:57;1.30;;;1.10;;
23402;SDS011;11874;48.228;11.684;2023-03-11T12:04:32;1.02;;;0.88;;
23402;SDS011;11874;48.228;11.684;2023-03-11T12:07:20;1.25;;;1.05;;
23402;SDS011;11874;48.228;11.684;2023-03-11T12:09:59;1.88;;;1.08;;
23402;SDS011;11874;48.228;11.684;2023-03-11T12:12:51;2.75;;;1.00;;
23402;SDS011;11874;48.228;11.684;2023-03-11T12:15:39;2.63;;;1.10;;
23402;SDS011;11874;48.228;11.684;2023-03-11T12:18:14;1.15;;;0.82;;
23402;SDS011;11874;48.228;11.684;2023-03-11T12:20:46;2.50;;;1.52;;
23402;SDS011;11874;48.228;11.684;2023-03-11T12:23:23;2.25;;;1.02;;
23402;SDS011;11874;48.228;11.684;2023-03-11T12:26:06;4.32;;;1.05;;
23402;SDS011;11874;48.228;11.684;2023-03-11T12:28:43;2.13;;;0.88;;
23402;SDS011;11874;48.228;11.684;2023-03-11T12:31:15;2.15;;;1.00;;
23402;SDS011;11874;48.228;11.684;2023-03-11T12:33:43;0.80;;;0.80;;
23402;SDS011;11874;48.228;11.684;2023-03-11T12:39:21;3.17;;;1.65;;
23402;SDS011;11874;48.228;11.684;2023-03-11T12:42:20;1.27;;;1.13;;
23402;SDS011;11874;48.228;11.684;2023-03-11T12:54:29;2.40;;;0.90;;
23402;SDS011;11874;48.228;11.684;2023-03-11T12:57:00;2.83;;;1.00;;
23402;SDS011;11874;48.228;11.684;2023-03-11T12:59:42;3.03;;;1.00;;
23402;SDS011;11874;48.228;11.684;2023-03-11T13:02:41;1.02;;;0.90;;
23402;SDS011;11874;48.228;11.684;2023-03-11T13:05:30;2.05;;;0.75;;
23402;SDS011;11874;48.228;11.684;2023-03-11T13:08:07;3.85;;;0.95;;
23402;SDS011;11874;48.228;11.684;2023-03-11T13:10:42;1.70;;;1.13;;
23402;SDS011;11874;48.228;11.684;2023-03-11T13:13:21;1.58;;;1.13;;
23402;SDS011;11874;48.228;11.684;2023-03-11T13:19:27;1.67;;;1.00;;
23402;SDS011;11874;48.228;11.684;2023-03-11T13:22:04;2.03;;;1.10;;
23402;SDS011;11874;48.228;11.684;2023-03-11T17:05:08;1.75;;;1.20;;
23402;SDS011;11874;48.228;11.684;2023-03-11T17:07:38;1.98;;;1.20;;
23402;SDS011;11874;48.228;11.684;2023-03-11T17:10:07;1.58;;;1.20;;
23402;SDS011;11874;48.228;11.684;2023-03-11T17:12:36;3.42;;;1.38;;
23402;SDS011;11874;48.228;11.684;2023-03-11T17:15:04;1.25;;;1.10;;
23402;SDS011;11874;48.228;11.684;2023-03-11T17:17:33;3.08;;;1.23;;
23402;SDS011;11874;48.228;11.684;2023-03-11T17:20:01;3.55;;;1.15;;
23402;SDS011;11874;48.228;11.684;2023-03-11T17:22:32;3.55;;;1.27;;
23402;SDS011;11874;48.228;11.684;2023-03-11T17:25:00;2.38;;;1.27;;
23402;SDS011;11874;48.228;11.684;2023-03-11T17:27:29;2.03;;;1.23;;
23402;SDS011;11874;48.228;11.684;2023-03-11T17:29:59;2.55;;;1.27;;
23402;SDS011;11874;48.228;11.684;2023-03-11T17:32:28;1.75;;;1.10;;
23402;SDS011;11874;48.228;11.684;2023-03-11T17:34:56;2.72;;;1.25;;
23402;SDS011;11874;48.228;11.684;2023-03-11T17:37:24;2.17;;;1.23;;
23402;SDS011;11874;48.228;11.684;2023-03-11T17:39:53;1.88;;;1.40;;
23402;SDS011;11874;48.228;11.684;2023-03-11T17:42:21;4.22;;;1.30;;
23402;SDS011;11874;48.228;11.684;2023-03-11T17:44:53;2.35;;;1.27;;
23402;SDS011;11874;48.228;11.684;2023-03-11T17:47:22;2.83;;;1.42;;
23402;SDS011;11874;48.228;11.684;2023-03-11T17:49:51;1.58;;;1.38;;
23402;SDS011;11874;48.228;11.684;2023-03-11T17:52:19;1.45;;;1.30;;
23402;SDS011;11874;48.228;11.684;2023-03-11T17:54:47;2.22;;;1.40;;
23402;SDS011;11874;48.228;11.684;2023-03-11T17:57:16;3.67;;;1.50;;
23402;SDS011;11874;48.228;11.684;2023-03-11T17:59:44;1.70;;;1.45;;
23402;SDS011;11874;48.228;11.684;2023-03-11T18:02:16;1.45;;;1.30;;
23402;SDS011;11874;48.228;11.684;2023-03-11T18:04:47;3.70;;;1.60;;
23402;SDS011;11874;48.228;11.684;2023-03-11T18:07:17;2.83;;;1.50;;
23402;SDS011;11874;48.228;11.684;2023-03-11T18:09:49;4.70;;;1.50;;
23402;SDS011;11874;48.228;11.684;2023-03-11T18:12:19;3.10;;;1.55;;
23402;SDS011;11874;48.228;11.684;2023-03-11T18:14:47;3.33;;;1.70;;
23402;SDS011;11874;48.228;11.684;2023-03-11T18:17:15;1.50;;;1.40;;
23402;SDS011;11874;48.228;11.684;2023-03-11T18:19:44;6.75;;;1.60;;
23402;SDS011;11874;48.228;11.684;2023-03-11T18:22:11;2.83;;;1.67;;
23402;SDS011;11874;48.228;11.684;2023-03-11T18:24:40;3.33;;;1.52;;
23402;SDS011;11874;48.228;11.684;2023-03-11T18:27:08;5.28;;;2.10;;
23402;SDS011;11874;48.228;11.684;2023-03-11T18:29:37;4.13;;;1.50;;
23402;SDS011;11874;48.228;11.684;2023-03-11T18:32:05;4.25;;;1.52;;
23402;SDS011;11874;48.228;11.684;2023-03-11T18:34:33;2.47;;;1.50;;
23402;SDS011;11874;48.228;11.684;2023-03-11T18:37:01;3.63;;;1.70;;
23402;SDS011;11874;48.228;11.684;2023-03-11T18:39:29;3.22;;;1.55;;
23402;SDS011;11874;48.228;11.684;2023-03-11T18:41:57;2.78;;;1.73;;
23402;SDS011;11874;48.228;11.684;2023-03-11T18:44:25;3.33;;;1.33;;
23402;SDS011;11874;48.228;11.684;2023-03-11T18:46:54;1.85;;;1.40;;
23402;SDS011;11874;48.228;11.684;2023-03-11T18:49:22;2.03;;;1.52;;
23402;SDS011;11874;48.228;11.684;2023-03-11T18:51:49;4.10;;;1.77;;
23402;SDS011;11874;48.228;11.684;2023-03-11T18:54:17;2.97;;;1.88;;
23402;SDS011;11874;48.228;11.684;2023-03-11T18:56:45;3.47;;;1.77;;
23402;SDS011;11874;48.228;11.684;2023-03-11T18:59:13;3.45;;;1.95;;
23402;SDS011;11874;48.228;11.684;2023-03-11T19:01:41;3.50;;;1.98;;
23402;SDS011;11874;48.228;11.684;2023-03-11T19:04:10;2.92;;;2.05;;
23402;SDS011;11874;48.228;11.684;2023-03-11T19:06:38;3.20;;;1.90;;
23402;SDS011;11874;48.228;11.684;2023-03-11T19:09:05;4.57;;;2.05;;
23402;SDS011;11874;48.228;11.684;2023-03-11T19:11:36;2.85;;;2.20;;
23402;SDS011;11874;48.228;11.684;2023-03-11T19:14:04;5.47;;;2.08;;
23402;SDS011;11874;48.228;11.684;2023-03-11T19:16:31;4.00;;;1.90;;
23402;SDS011;11874;48.228;11.684;2023-03-11T19:18:59;3.03;;;1.90;;
23402;SDS011;11874;48.228;11.684;2023-03-11T19:21:29;2.92;;;2.10;;
23402;SDS011;11874;48.228;11.684;2023-03-11T19:23:56;4.72;;;2.20;;
23402;SDS011;11874;48.228;11.684;2023-03-11T19:26:25;2.00;;;1.77;;
23402;SDS011;11874;48.228;11.684;2023-03-11T19:29:10;3.50;;;1.85;;
23402;SDS011;11874;48.228;11.684;2023-03-11T19:31:38;3.50;;;2.00;;
23402;SDS011;11874;48.228;11.684;2023-03-11T19:34:06;3.70;;;2.40;;
23402;SDS011;11874;48.228;11.684;2023-03-11T19:36:35;7.82;;;2.60;;
23402;SDS011;11874;48.228;11.684;2023-03-11T19:39:04;6.20;;;2.17;;
23402;SDS011;11874;48.228;11.684;2023-03-11T19:41:32;3.35;;;2.03;;
23402;SDS011;11874;48.228;11.684;2023-03-11T19:44:00;3.65;;;2.22;;
23402;SDS011;11874;48.228;11.684;2023-03-11T19:46:29;5.32;;;2.13;;
23402;SDS011;11874;48.228;11.684;2023-03-11T19:48:59;5.20;;;2.20;;
23402;SDS011;11874;48.228;11.684;2023-03-11T19:51:27;3.95;;;2.33;;
23402;SDS011;11874;48.228;11.684;2023-03-11T19:54:13;4.13;;;1.83;;
23402;SDS011;11874;48.228;11.684;2023-03-11T19:56:41;2.47;;;1.90;;
23402;SDS011;11874;48.228;11.684;2023-03-11T19:59:09;3.75;;;1.83;;
23402;SDS011;11874;48.228;11.684;2023-03-11T20:01:37;2.28;;;1.77;;
23402;SDS011;11874;48.228;11.684;2023-03-11T20:04:07;4.95;;;1.90;;
23402;SDS011;11874;48.228;11.684;2023-03-11T20:06:35;2.75;;;1.80;;
23402;SDS011;11874;48.228;11.684;2023-03-11T20:09:04;3.33;;;1.77;;
23402;SDS011;11874;48.228;11.684;2023-03-11T20:11:39;5.22;;;1.77;;
23402;SDS011;11874;48.228;11.684;2023-03-11T20:14:07;3.72;;;2.00;;
23402;SDS011;11874;48.228;11.684;2023-03-11T20:16:39;3.50;;;1.85;;
23402;SDS011;11874;48.228;11.684;2023-03-11T20:19:07;3.15;;;2.10;;
23402;SDS011;11874;48.228;11.684;2023-03-11T20:21:35;2.40;;;1.75;;
23402;SDS011;11874;48.228;11.684;2023-03-11T20:24:11;3.33;;;1.90;;
23402;SDS011;11874;48.228;11.684;2023-03-11T20:26:40;4.22;;;2.08;;
23402;SDS011;11874;48.228;11.684;2023-03-11T20:29:08;9.18;;;4.55;;
23402;SDS011;11874;48.228;11.684;2023-03-11T20:31:36;13.90;;;5.82;;
23402;SDS011;11874;48.228;11.684;2023-03-11T20:34:04;9.45;;;5.22;;
23402;SDS011;11874;48.228;11.684;2023-03-11T20:36:32;11.18;;;5.35;;
23402;SDS011;11874;48.228;11.684;2023-03-11T20:39:04;5.73;;;3.07;;
23402;SDS011;11874;48.228;11.684;2023-03-11T20:41:36;6.70;;;2.90;;
23402;SDS011;11874;48.228;11.684;2023-03-11T20:44:10;2.55;;;2.15;;
23402;SDS011;11874;48.228;11.684;2023-03-11T20:46:42;6.47;;;2.85;;
23402;SDS011;11874;48.228;11.684;2023-03-11T20:49:10;4.50;;;2.40;;
23402;SDS011;11874;48.228;11.684;2023-03-11T20:51:38;5.68;;;3.00;;
23402;SDS011;11874;48.228;11.684;2023-03-11T20:54:07;6.30;;;3.17;;
23402;SDS011;11874;48.228;11.684;2023-03-11T20:56:35;3.50;;;2.70;;
23402;SDS011;11874;48.228;11.684;2023-03-11T20:59:03;4.90;;;2.78;;
23402;SDS011;11874;48.228;11.684;2023-03-11T21:01:35;4.13;;;2.33;;
23402;SDS011;11874;48.228;11.684;2023-03-11T21:04:03;7.15;;;2.53;;
23402;SDS011;11874;48.228;11.684;2023-03-11T21:06:32;2.75;;;2.20;;
23402;SDS011;11874;48.228;11.684;2023-03-11T21:09:02;3.55;;;2.47;;
23402;SDS011;11874;48.228;11.684;2023-03-11T21:11:32;2.83;;;2.50;;
23402;SDS011;11874;48.228;11.684;2023-03-11T21:14:00;3.88;;;2.38;;
23402;SDS011;11874;48.228;11.684;2023-03-11T21:16:28;5.18;;;3.05;;
23402;SDS011;11874;48.228;11.684;2023-03-11T21:18:58;5.10;;;3.08;;
23402;SDS011;11874;48.228;11.684;2023-03-11T21:21:30;5.18;;;3.13;;
23402;SDS011;11874;48.228;11.684;2023-03-11T21:23:59;6.68;;;3.13;;
23402;SDS011;11874;48.228;11.684;2023-03-11T21:26:27;7.00;;;3.60;;
23402;SDS011;11874;48.228;11.684;2023-03-11T21:28:55;4.97;;;3.40;;
23402;SDS011;11874;48.228;11.684;2023-03-11T21:31:23;4.55;;;3.13;;
23402;SDS011;11874;48.228;11.684;2023-03-11T21:33:55;8.60;;;4.60;;
23402;SDS011;11874;48.228;11.684;2023-03-11T21:36:25;6.75;;;5.20;;
23402;SDS011;11874;48.228;11.684;2023-03-11T21:38:54;8.60;;;4.20;;
23402;SDS011;11874;48.228;11.684;2023-03-11T21:41:22;4.50;;;3.75;;
23402;SDS011;11874;48.228;11.684;2023-03-11T21:43:53;6.05;;;3.90;;
23402;SDS011;11874;48.228;11.684;2023-03-11T21:46:23;5.25;;;3.55;;
23402;SDS011;11874;48.228;11.684;2023-03-11T21:48:52;4.95;;;3.38;;
23402;SDS011;11874;48.228;11.684;2023-03-11T21:51:22;3.58;;;2.85;;
23402;SDS011;11874;48.228;11.684;2023-03-11T21:53:52;6.25;;;3.55;;
23402;SDS011;11874;48.228;11.684;2023-03-11T21:56:20;4.43;;;3.40;;
23402;SDS011;11874;48.228;11.684;2023-03-11T21:58:48;4.80;;;3.65;;
23402;SDS011;11874;48.228;11.684;2023-03-11T22:01:16;5.85;;;3.67;;
